Time;durP1;ratioP1;P1;durP2;ratioP2;P2;SDS_P1;SDS_P2;PMS_P1;PMS_P2;Temp;Humidity;BMP_temperature;BMP_pressure;BME280_temperature;BME280_humidity;BME280_pressure;Samples;Min_cycle;Max_cycle;Signal;HPM_P1;HPM_P2
2023/02/20 00:01:46;;;;;;;;;;;5.10;99.90;;;;;;4995803;28;19918;-63
2023/02/20 00:04:11;;;;;;;;;;;5.00;99.90;;;;;;5013418;28;19917;-62
2023/02/20 00:06:36;;;;;;;;;;;5.00;99.90;;;;;;5008883;28;19914;-63
2023/02/20 00:09:02;;;;;;;;;;;4.90;99.90;;;;;;5019145;28;19952;-61
2023/02/20 00:11:28;;;;;;;;;;;4.80;99.90;;;;;;5007748;28;19924;-62
2023/02/20 00:13:53;;;;;;;;;;;4.70;99.90;;;;;;5010477;28;19920;-62
2023/02/20 00:16:19;;;;;;;;;;;4.50;99.90;;;;;;5015657;28;20132;-63
2023/02/20 00:18:44;;;;;;;;;;;4.50;99.90;;;;;;5001331;28;19917;-64
2023/02/20 00:21:10;;;;;;;;;;;4.50;99.90;;;;;;5008067;28;19944;-62
2023/02/20 00:23:35;;;;;;;;;;;4.40;99.90;;;;;;5011667;28;20004;-65
2023/02/20 00:26:01;;;;;;;;;;;4.40;99.90;;;;;;5003750;28;19917;-64
2023/02/20 00:28:28;;;;;;;;;;;4.40;99.90;;;;;;5004409;28;19935;-63
2023/02/20 00:30:53;;;;;;;;;;;4.30;99.90;;;;;;5007122;28;19932;-64
2023/02/20 00:33:19;;;;;;;;;;;4.40;99.90;;;;;;5012633;28;19921;-61
2023/02/20 00:35:44;;;;;;;;;;;4.30;99.90;;;;;;5009704;28;19959;-64
2023/02/20 00:38:10;;;;;;;;;;;4.40;99.90;;;;;;5014168;28;19921;-64
2023/02/20 00:40:35;;;;;;;;;;;4.30;99.90;;;;;;5002136;28;19913;-63
2023/02/20 00:43:01;;;;;;;;;;;4.30;99.90;;;;;;5003855;28;20379;-63
2023/02/20 00:45:27;;;;;;;;;;;4.40;99.90;;;;;;4985106;28;19926;-63
2023/02/20 00:47:52;;;;;;;;;;;4.40;99.90;;;;;;5003814;28;19919;-63
2023/02/20 00:50:18;;;;;;;;;;;4.40;99.90;;;;;;5007946;28;19921;-63
2023/02/20 00:52:44;;;;;;;;;;;4.50;99.90;;;;;;5004937;28;20511;-61
2023/02/20 00:55:09;;;;;;;;;;;4.60;99.90;;;;;;5004457;28;20543;-64
2023/02/20 00:57:35;;;;;;;;;;;4.50;99.90;;;;;;5010817;28;20448;-61
2023/02/20 01:00:00;;;;;;;;;;;4.50;99.90;;;;;;4988818;28;20555;-62
2023/02/20 01:02:26;;;;;;;;;;;4.40;99.90;;;;;;4997881;28;19988;-62
2023/02/20 01:04:52;;;;;;;;;;;4.30;99.90;;;;;;5002925;28;20419;-64
2023/02/20 01:07:18;;;;;;;;;;;4.30;99.90;;;;;;5009740;28;19917;-62
2023/02/20 01:09:43;;;;;;;;;;;4.20;99.90;;;;;;5005076;28;19917;-63
2023/02/20 01:12:09;;;;;;;;;;;4.20;99.90;;;;;;5015028;28;19928;-63
2023/02/20 01:14:35;;;;;;;;;;;4.10;99.90;;;;;;5006647;28;19920;-65
2023/02/20 01:17:00;;;;;;;;;;;4.10;99.90;;;;;;5004526;28;19971;-63
2023/02/20 01:19:26;;;;;;;;;;;4.00;99.90;;;;;;5012292;28;20379;-62
2023/02/20 01:21:51;;;;;;;;;;;3.90;99.90;;;;;;4996421;28;19988;-63
2023/02/20 01:24:17;;;;;;;;;;;3.90;99.90;;;;;;5006482;28;20016;-63
2023/02/20 01:26:43;;;;;;;;;;;3.90;99.90;;;;;;5012004;28;19922;-64
2023/02/20 01:29:09;;;;;;;;;;;4.00;99.90;;;;;;5000355;28;20269;-64
2023/02/20 01:31:34;;;;;;;;;;;4.10;99.90;;;;;;5008916;28;19920;-64
2023/02/20 01:34:00;;;;;;;;;;;4.20;99.90;;;;;;5013909;28;20302;-63
2023/02/20 01:36:26;;;;;;;;;;;4.20;99.90;;;;;;5015018;28;19948;-63
2023/02/20 01:38:52;;;;;;;;;;;4.30;99.90;;;;;;5008613;28;19984;-63
2023/02/20 01:41:17;;;;;;;;;;;4.20;99.90;;;;;;5016720;28;20348;-64
2023/02/20 01:43:43;;;;;;;;;;;4.20;99.90;;;;;;5012528;28;20506;-64
2023/02/20 01:46:26;;;;;;;;;;;4.20;99.90;;;;;;5009400;28;20027;-64
2023/02/20 01:49:03;;;;;;;;;;;4.10;99.90;;;;;;5008943;28;19963;-64
2023/02/20 01:51:30;;;;;;;;;;;4.10;99.90;;;;;;5021985;28;19941;-64
2023/02/20 01:53:56;;;;;;;;;;;4.10;99.90;;;;;;5005853;28;20341;-64
2023/02/20 01:56:21;;;;;;;;;;;4.10;99.90;;;;;;4998163;28;19914;-63
2023/02/20 01:58:48;;;;;;;;;;;4.10;99.90;;;;;;5003644;28;20371;-64
2023/02/20 02:01:14;;;;;;;;;;;4.10;99.90;;;;;;5009282;28;19913;-64
2023/02/20 02:03:41;;;;;;;;;;;4.20;99.90;;;;;;5012462;28;20056;-62
2023/02/20 02:06:08;;;;;;;;;;;4.20;99.90;;;;;;5000060;28;19975;-64
2023/02/20 02:08:35;;;;;;;;;;;4.30;99.90;;;;;;5000979;28;19925;-63
2023/02/20 02:11:01;;;;;;;;;;;4.30;99.90;;;;;;4998674;28;19929;-64
2023/02/20 02:13:27;;;;;;;;;;;4.40;99.90;;;;;;5007970;28;19913;-63
2023/02/20 02:15:59;;;;;;;;;;;4.50;99.90;;;;;;5006635;28;19920;-64
2023/02/20 02:18:25;;;;;;;;;;;4.60;99.90;;;;;;5011149;28;19943;-64
2023/02/20 02:21:06;;;;;;;;;;;4.70;99.90;;;;;;5004966;28;20306;-64
2023/02/20 02:23:50;;;;;;;;;;;4.70;99.90;;;;;;4999853;28;20441;-63
2023/02/20 02:26:24;;;;;;;;;;;4.60;99.90;;;;;;5009861;28;19944;-64
2023/02/20 02:29:00;;;;;;;;;;;4.70;99.90;;;;;;5009541;28;20314;-64
2023/02/20 02:31:52;;;;;;;;;;;4.70;99.90;;;;;;5005336;28;19914;-64
2023/02/20 02:34:21;;;;;;;;;;;4.70;99.90;;;;;;5009190;28;19922;-63
2023/02/20 02:36:52;;;;;;;;;;;4.60;99.90;;;;;;5010817;28;20059;-64
2023/02/20 02:39:29;;;;;;;;;;;4.50;99.90;;;;;;4999083;28;19940;-64
2023/02/20 02:41:55;;;;;;;;;;;4.40;99.90;;;;;;4996817;28;19913;-64
2023/02/20 02:44:24;;;;;;;;;;;4.40;99.90;;;;;;5004158;28;19940;-64
2023/02/20 02:47:00;;;;;;;;;;;4.30;99.90;;;;;;5017034;28;19945;-64
2023/02/20 02:49:44;;;;;;;;;;;4.30;99.90;;;;;;4997508;28;19973;-63
2023/02/20 02:52:10;;;;;;;;;;;4.40;99.90;;;;;;4999818;28;19920;-64
2023/02/20 02:54:36;;;;;;;;;;;4.30;99.90;;;;;;5007696;28;19920;-64
2023/02/20 02:57:18;;;;;;;;;;;4.30;99.90;;;;;;5013758;28;19913;-64
2023/02/20 02:59:45;;;;;;;;;;;4.20;99.90;;;;;;5005389;28;19924;-64
2023/02/20 03:02:13;;;;;;;;;;;4.20;99.90;;;;;;4998775;28;19918;-63
2023/02/20 03:04:39;;;;;;;;;;;4.20;99.90;;;;;;4995557;28;19928;-63
2023/02/20 03:07:07;;;;;;;;;;;4.30;99.90;;;;;;5005265;28;19913;-64
2023/02/20 03:09:35;;;;;;;;;;;4.30;99.90;;;;;;5005503;23;19922;-63
2023/02/20 03:12:01;;;;;;;;;;;4.20;99.90;;;;;;4989531;28;19966;-63
2023/02/20 03:17:25;;;;;;;;;;;4.20;99.90;;;;;;4989515;28;19963;-63
2023/02/20 03:19:52;;;;;;;;;;;4.10;99.90;;;;;;4993360;28;19917;-63
2023/02/20 03:22:23;;;;;;;;;;;4.10;99.90;;;;;;5005341;28;19921;-63
2023/02/20 03:24:54;;;;;;;;;;;4.10;99.90;;;;;;5008543;28;19921;-64
2023/02/20 03:27:29;;;;;;;;;;;4.00;99.90;;;;;;5004908;28;19920;-63
2023/02/20 03:29:56;;;;;;;;;;;4.00;99.90;;;;;;5000829;28;20442;-63
2023/02/20 03:45:49;;;;;;;;;;;4.30;99.90;;;;;;5000778;28;19921;-63
2023/02/20 03:48:34;;;;;;;;;;;4.30;99.90;;;;;;5009734;28;19917;-63
2023/02/20 03:50:59;;;;;;;;;;;4.30;99.90;;;;;;5000439;28;19952;-60
2023/02/20 03:53:25;;;;;;;;;;;4.20;99.90;;;;;;5002047;28;19971;-62
2023/02/20 03:55:51;;;;;;;;;;;4.00;99.90;;;;;;4992267;28;20369;-63
2023/02/20 03:58:21;;;;;;;;;;;3.90;99.90;;;;;;4990723;28;19957;-62
2023/02/20 04:00:47;;;;;;;;;;;3.60;99.90;;;;;;5000682;28;19913;-64
2023/02/20 04:03:17;;;;;;;;;;;3.60;99.90;;;;;;5003951;28;19914;-64
2023/02/20 04:05:45;;;;;;;;;;;3.60;99.90;;;;;;5004922;28;19926;-63
2023/02/20 04:08:21;;;;;;;;;;;3.70;99.90;;;;;;5006433;28;19940;-63
2023/02/20 04:10:50;;;;;;;;;;;3.60;99.90;;;;;;5003290;28;20068;-63
2023/02/20 04:13:16;;;;;;;;;;;3.50;99.90;;;;;;5008703;28;19917;-63
2023/02/20 04:15:42;;;;;;;;;;;3.30;99.90;;;;;;4997603;28;19975;-63
2023/02/20 04:18:19;;;;;;;;;;;3.10;99.90;;;;;;4996496;28;19978;-64
2023/02/20 04:20:46;;;;;;;;;;;2.90;99.90;;;;;;5002650;28;19968;-63
2023/02/20 04:23:16;;;;;;;;;;;2.80;99.90;;;;;;5010260;28;19935;-63
2023/02/20 04:25:45;;;;;;;;;;;2.70;99.90;;;;;;5009375;28;19967;-63
2023/02/20 04:28:11;;;;;;;;;;;2.70;99.90;;;;;;5003908;28;19913;-63
2023/02/20 04:30:37;;;;;;;;;;;2.80;99.90;;;;;;5008179;28;20319;-63
2023/02/20 04:33:02;;;;;;;;;;;2.90;99.90;;;;;;5006066;28;19914;-63
2023/02/20 04:35:28;;;;;;;;;;;3.00;99.90;;;;;;5008441;28;19959;-63
2023/02/20 04:37:53;;;;;;;;;;;3.00;99.90;;;;;;5013867;28;19917;-62
2023/02/20 04:40:20;;;;;;;;;;;3.10;99.90;;;;;;5008851;28;19913;-63
2023/02/20 04:42:45;;;;;;;;;;;3.20;99.90;;;;;;5009090;28;19976;-64
2023/02/20 04:45:11;;;;;;;;;;;3.30;99.90;;;;;;5006600;28;20413;-63
2023/02/20 04:47:36;;;;;;;;;;;3.40;99.90;;;;;;5007063;28;19921;-63
2023/02/20 04:50:03;;;;;;;;;;;3.40;99.90;;;;;;5008078;28;19924;-62
2023/02/20 04:52:28;;;;;;;;;;;3.50;99.90;;;;;;5008793;28;19950;-63
2023/02/20 04:54:53;;;;;;;;;;;3.50;99.90;;;;;;5018056;28;19933;-62
2023/02/20 04:57:19;;;;;;;;;;;3.50;99.90;;;;;;5011498;28;19914;-64
2023/02/20 04:59:44;;;;;;;;;;;3.40;99.90;;;;;;5007013;28;20436;-63
2023/02/20 05:02:10;;;;;;;;;;;3.10;99.90;;;;;;5012152;28;19920;-63
2023/02/20 05:04:36;;;;;;;;;;;3.00;99.90;;;;;;5002593;28;19929;-64
2023/02/20 05:07:01;;;;;;;;;;;2.90;99.90;;;;;;5004595;28;19923;-63
2023/02/20 05:09:27;;;;;;;;;;;2.80;99.90;;;;;;5014563;28;19967;-62
2023/02/20 05:11:52;;;;;;;;;;;2.90;99.90;;;;;;5012108;28;20379;-63
2023/02/20 05:14:18;;;;;;;;;;;3.00;99.90;;;;;;5009403;28;19921;-63
2023/02/20 05:16:44;;;;;;;;;;;3.10;99.90;;;;;;5010967;28;19922;-63
2023/02/20 05:19:10;;;;;;;;;;;3.10;99.90;;;;;;5014841;28;19968;-63
2023/02/20 05:24:20;;;;;;;;;;;3.20;99.90;;;;;;5004190;28;19925;-63
2023/02/20 05:26:45;;;;;;;;;;;3.20;99.90;;;;;;5005272;28;20159;-63
2023/02/20 05:29:12;;;;;;;;;;;3.30;99.90;;;;;;5007705;28;19914;-62
2023/02/20 05:31:38;;;;;;;;;;;3.30;99.90;;;;;;5006467;28;19956;-63
2023/02/20 05:34:04;;;;;;;;;;;3.10;99.90;;;;;;5006714;28;19949;-63
2023/02/20 05:36:29;;;;;;;;;;;3.10;99.90;;;;;;5007865;28;20394;-62
2023/02/20 05:38:54;;;;;;;;;;;3.10;99.90;;;;;;5007353;28;19921;-63
2023/02/20 05:41:20;;;;;;;;;;;3.00;99.90;;;;;;5009201;28;19914;-63
2023/02/20 05:43:47;;;;;;;;;;;3.10;99.90;;;;;;5008392;28;19956;-62
2023/02/20 05:46:12;;;;;;;;;;;3.10;99.90;;;;;;5007280;28;19917;-62
2023/02/20 05:48:38;;;;;;;;;;;3.10;99.90;;;;;;4999924;28;19918;-62
2023/02/20 05:51:03;;;;;;;;;;;3.20;99.90;;;;;;5011152;28;19920;-63
2023/02/20 05:53:29;;;;;;;;;;;3.20;99.90;;;;;;5013076;28;19927;-62
2023/02/20 05:55:55;;;;;;;;;;;3.30;99.90;;;;;;4993037;28;19959;-63
2023/02/20 05:58:20;;;;;;;;;;;3.30;99.90;;;;;;5006326;28;20349;-63
2023/02/20 06:00:46;;;;;;;;;;;3.40;99.90;;;;;;5010379;28;19921;-63
2023/02/20 06:03:13;;;;;;;;;;;3.40;99.90;;;;;;5015966;28;19913;-63
2023/02/20 06:05:38;;;;;;;;;;;3.40;99.90;;;;;;5010710;28;19917;-63
2023/02/20 06:08:04;;;;;;;;;;;3.40;99.90;;;;;;5009131;28;19921;-63
2023/02/20 06:10:30;;;;;;;;;;;3.40;99.90;;;;;;5018750;28;19917;-63
2023/02/20 06:12:55;;;;;;;;;;;3.30;99.90;;;;;;5009933;28;19914;-63
2023/02/20 06:15:21;;;;;;;;;;;3.10;99.90;;;;;;5016458;28;19944;-63
2023/02/20 06:17:46;;;;;;;;;;;3.00;99.90;;;;;;5010113;28;19914;-63
2023/02/20 06:20:12;;;;;;;;;;;2.90;99.90;;;;;;5016614;28;19913;-63
2023/02/20 06:22:38;;;;;;;;;;;3.00;99.90;;;;;;5010983;28;19913;-63
2023/02/20 06:25:03;;;;;;;;;;;2.90;99.90;;;;;;5009226;28;19917;-63
2023/02/20 06:27:29;;;;;;;;;;;3.00;99.90;;;;;;5009516;28;20008;-63
2023/02/20 06:29:54;;;;;;;;;;;3.00;99.90;;;;;;5010131;28;19913;-63
2023/02/20 06:32:19;;;;;;;;;;;3.00;99.90;;;;;;5009069;28;20032;-63
2023/02/20 06:34:45;;;;;;;;;;;3.00;99.90;;;;;;5009069;28;20433;-63
2023/02/20 06:37:11;;;;;;;;;;;3.10;99.90;;;;;;5008805;28;20296;-62
2023/02/20 06:39:36;;;;;;;;;;;3.10;99.90;;;;;;5012024;28;19964;-63
2023/02/20 06:42:02;;;;;;;;;;;3.00;99.90;;;;;;5008418;28;20398;-63
2023/02/20 06:44:27;;;;;;;;;;;3.10;99.90;;;;;;5016097;28;19921;-62
2023/02/20 06:46:53;;;;;;;;;;;3.10;99.90;;;;;;5013685;28;19928;-63
2023/02/20 06:49:18;;;;;;;;;;;3.10;99.90;;;;;;5011799;28;19992;-63
2023/02/20 06:51:43;;;;;;;;;;;3.10;99.90;;;;;;5008359;28;19940;-63
2023/02/20 06:54:11;;;;;;;;;;;3.10;99.90;;;;;;5007811;28;19914;-63
2023/02/20 06:56:36;;;;;;;;;;;3.10;99.90;;;;;;5009951;28;19913;-63
2023/02/20 06:59:03;;;;;;;;;;;3.10;99.90;;;;;;5008927;28;20029;-62
2023/02/20 07:01:30;;;;;;;;;;;3.20;99.90;;;;;;5005759;28;19913;-63
2023/02/20 07:03:56;;;;;;;;;;;3.30;99.90;;;;;;5008146;28;19914;-63
2023/02/20 07:06:22;;;;;;;;;;;3.30;99.90;;;;;;5007079;28;19914;-63
2023/02/20 07:08:48;;;;;;;;;;;3.40;99.90;;;;;;5004867;28;19914;-63
2023/02/20 07:11:15;;;;;;;;;;;3.30;99.90;;;;;;5008563;28;19929;-63
2023/02/20 07:13:40;;;;;;;;;;;3.30;99.90;;;;;;5016041;28;20402;-63
2023/02/20 07:16:06;;;;;;;;;;;3.30;99.90;;;;;;5008969;28;19914;-63
2023/02/20 07:18:31;;;;;;;;;;;3.40;99.90;;;;;;4988382;28;19929;-63
2023/02/20 07:20:57;;;;;;;;;;;3.40;99.90;;;;;;5010381;28;19921;-63
2023/02/20 07:23:22;;;;;;;;;;;3.50;99.90;;;;;;5006890;28;19914;-62
2023/02/20 07:25:49;;;;;;;;;;;3.50;99.90;;;;;;5011300;28;19917;-63
2023/02/20 07:28:18;;;;;;;;;;;3.50;99.90;;;;;;5009646;28;20271;-64
2023/02/20 07:30:44;;;;;;;;;;;3.60;99.90;;;;;;5008738;28;19917;-63
2023/02/20 07:33:09;;;;;;;;;;;3.70;99.90;;;;;;5009681;28;20280;-63
2023/02/20 07:35:35;;;;;;;;;;;3.80;99.90;;;;;;5009929;28;19932;-63
2023/02/20 07:38:00;;;;;;;;;;;3.80;99.90;;;;;;5012769;28;19937;-63
2023/02/20 07:40:26;;;;;;;;;;;3.80;99.90;;;;;;5013110;28;19912;-62
2023/02/20 07:42:51;;;;;;;;;;;3.80;99.90;;;;;;5019112;28;20295;-63
2023/02/20 07:45:17;;;;;;;;;;;3.90;99.90;;;;;;5004557;28;19925;-64
2023/02/20 07:47:42;;;;;;;;;;;3.90;99.90;;;;;;4995703;28;19918;-63
2023/02/20 07:50:08;;;;;;;;;;;3.90;99.90;;;;;;4999101;28;19917;-63
2023/02/20 07:52:33;;;;;;;;;;;4.00;99.90;;;;;;5002633;28;19918;-64
2023/02/20 07:54:59;;;;;;;;;;;4.10;99.90;;;;;;5004915;28;19920;-63
2023/02/20 07:57:24;;;;;;;;;;;4.10;99.90;;;;;;5006800;28;19917;-63
2023/02/20 07:59:50;;;;;;;;;;;4.10;99.90;;;;;;4999863;28;19924;-64
2023/02/20 08:02:15;;;;;;;;;;;4.20;99.90;;;;;;5005305;28;19963;-63
2023/02/20 08:04:41;;;;;;;;;;;4.40;99.90;;;;;;5007196;28;19918;-63
2023/02/20 08:07:06;;;;;;;;;;;4.60;99.90;;;;;;5005440;28;20051;-63
2023/02/20 08:09:32;;;;;;;;;;;4.80;99.90;;;;;;5005585;28;19914;-63
2023/02/20 08:11:57;;;;;;;;;;;5.10;99.90;;;;;;4980090;28;19921;-61
2023/02/20 08:14:23;;;;;;;;;;;5.30;99.90;;;;;;4983654;28;19949;-63
2023/02/20 08:16:48;;;;;;;;;;;5.50;99.90;;;;;;4986228;28;19921;-63
2023/02/20 08:19:14;;;;;;;;;;;5.70;99.90;;;;;;4985571;28;19922;-63
2023/02/20 08:21:39;;;;;;;;;;;5.80;99.90;;;;;;4986043;28;19913;-63
2023/02/20 08:24:05;;;;;;;;;;;6.00;99.90;;;;;;4982624;28;19914;-63
2023/02/20 08:26:33;;;;;;;;;;;6.10;99.90;;;;;;4981707;28;19914;-61
2023/02/20 08:28:59;;;;;;;;;;;6.10;99.90;;;;;;4987010;28;20383;-62
2023/02/20 08:31:26;;;;;;;;;;;6.20;99.90;;;;;;4978037;28;19914;-63
2023/02/20 08:33:51;;;;;;;;;;;6.30;99.90;;;;;;4985038;28;19920;-63
2023/02/20 08:36:17;;;;;;;;;;;6.30;99.90;;;;;;4986693;28;19914;-63
2023/02/20 08:38:43;;;;;;;;;;;6.40;99.90;;;;;;4985216;28;19917;-63
2023/02/20 08:41:10;;;;;;;;;;;6.50;99.90;;;;;;4984260;28;19948;-63
2023/02/20 08:43:36;;;;;;;;;;;6.50;99.90;;;;;;4983310;28;20069;-63
2023/02/20 08:46:02;;;;;;;;;;;6.60;99.90;;;;;;4984691;28;19999;-62
2023/02/20 08:48:27;;;;;;;;;;;6.60;99.90;;;;;;4982762;28;19969;-62
2023/02/20 08:50:53;;;;;;;;;;;6.70;99.90;;;;;;4986657;28;19914;-63
2023/02/20 08:53:18;;;;;;;;;;;6.70;99.90;;;;;;4990710;28;19920;-63
2023/02/20 08:55:44;;;;;;;;;;;6.60;99.90;;;;;;4983455;28;20442;-64
2023/02/20 08:58:10;;;;;;;;;;;6.60;99.90;;;;;;4980341;28;19913;-63
2023/02/20 09:00:35;;;;;;;;;;;6.70;99.90;;;;;;4978414;28;19914;-64
2023/02/20 09:03:03;;;;;;;;;;;6.70;99.90;;;;;;4986277;28;20502;-65
2023/02/20 09:05:29;;;;;;;;;;;6.70;99.90;;;;;;4984679;28;20283;-63
2023/02/20 09:07:54;;;;;;;;;;;6.80;99.90;;;;;;4987672;28;19921;-64
2023/02/20 09:10:20;;;;;;;;;;;6.80;99.90;;;;;;5007665;23;20430;-61
2023/02/20 09:12:46;;;;;;;;;;;6.80;99.90;;;;;;4986778;28;20016;-64
2023/02/20 09:15:11;;;;;;;;;;;6.80;99.90;;;;;;4983234;28;19965;-61
2023/02/20 09:17:37;;;;;;;;;;;6.90;99.90;;;;;;4986249;28;21440;-62
2023/02/20 09:20:04;;;;;;;;;;;6.90;99.90;;;;;;4973958;28;20371;-62
2023/02/20 09:22:30;;;;;;;;;;;7.00;99.90;;;;;;5004134;28;19929;-61
2023/02/20 09:24:56;;;;;;;;;;;7.00;99.90;;;;;;5005597;28;19929;-62
2023/02/20 09:27:21;;;;;;;;;;;7.10;99.90;;;;;;5002489;28;19968;-61
2023/02/20 09:29:47;;;;;;;;;;;7.20;99.90;;;;;;5002889;28;19925;-62
2023/02/20 09:32:12;;;;;;;;;;;7.40;99.90;;;;;;5004878;28;19957;-61
2023/02/20 09:34:38;;;;;;;;;;;7.50;99.90;;;;;;5003122;28;20450;-63
2023/02/20 09:37:03;;;;;;;;;;;7.60;99.90;;;;;;5006917;28;19960;-62
2023/02/20 09:39:29;;;;;;;;;;;7.60;99.90;;;;;;5005871;28;19952;-62
2023/02/20 09:42:03;;;;;;;;;;;7.80;99.90;;;;;;5011396;28;20438;-63
2023/02/20 09:44:28;;;;;;;;;;;7.90;99.90;;;;;;5008381;28;19921;-62
2023/02/20 09:46:55;;;;;;;;;;;8.00;99.90;;;;;;5011815;28;19941;-62
2023/02/20 09:49:24;;;;;;;;;;;8.00;99.90;;;;;;5009682;28;19932;-62
2023/02/20 09:51:58;;;;;;;;;;;8.20;99.90;;;;;;5006116;28;20541;-63
2023/02/20 09:54:27;;;;;;;;;;;8.20;99.90;;;;;;5010346;28;19913;-63
2023/02/20 09:56:55;;;;;;;;;;;8.30;99.90;;;;;;5010425;28;19914;-62
2023/02/20 09:59:21;;;;;;;;;;;8.40;99.90;;;;;;5008926;28;20391;-62
2023/02/20 10:01:57;;;;;;;;;;;8.60;99.90;;;;;;5005504;28;19913;-63
2023/02/20 10:04:26;;;;;;;;;;;8.70;99.90;;;;;;5014013;28;20227;-61
2023/02/20 10:06:53;;;;;;;;;;;8.90;99.90;;;;;;5018501;28;19988;-62
2023/02/20 10:09:19;;;;;;;;;;;8.80;99.90;;;;;;5009327;28;19924;-62
2023/02/20 10:12:07;;;;;;;;;;;8.90;99.90;;;;;;5017711;28;19921;-63
2023/02/20 10:14:38;;;;;;;;;;;9.10;99.90;;;;;;5009432;28;19914;-62
2023/02/20 10:17:22;;;;;;;;;;;9.00;99.90;;;;;;5010551;28;19913;-63
2023/02/20 10:19:54;;;;;;;;;;;9.10;99.90;;;;;;5006726;28;19921;-63
2023/02/20 10:22:25;;;;;;;;;;;9.10;99.90;;;;;;5007362;28;20628;-61
2023/02/20 10:24:52;;;;;;;;;;;9.00;99.90;;;;;;5000682;28;19918;-61
2023/02/20 10:27:29;;;;;;;;;;;9.00;99.90;;;;;;5007832;28;20017;-62
2023/02/20 10:29:55;;;;;;;;;;;9.10;99.90;;;;;;5007135;28;20259;-63
2023/02/20 10:32:24;;;;;;;;;;;9.20;99.90;;;;;;5010476;28;20004;-63
2023/02/20 10:34:54;;;;;;;;;;;9.60;99.90;;;;;;5003663;28;19914;-62
2023/02/20 10:37:21;;;;;;;;;;;9.80;99.90;;;;;;5005097;28;19910;-61
2023/02/20 10:39:54;;;;;;;;;;;10.20;99.90;;;;;;5013639;28;19983;-63
2023/02/20 10:42:37;;;;;;;;;;;10.10;99.90;;;;;;5002792;28;19918;-62
2023/02/20 10:45:11;;;;;;;;;;;10.10;99.90;;;;;;5002437;28;19924;-62
2023/02/20 10:47:42;;;;;;;;;;;9.90;99.90;;;;;;5000042;28;19921;-62
2023/02/20 10:50:27;;;;;;;;;;;9.90;99.90;;;;;;5000169;28;19913;-63
2023/02/20 10:52:56;;;;;;;;;;;10.00;99.90;;;;;;5004602;28;19921;-62
2023/02/20 10:55:21;;;;;;;;;;;10.20;99.90;;;;;;5013876;28;19921;-63
2023/02/20 10:57:49;;;;;;;;;;;10.40;99.90;;;;;;5005501;28;19914;-62
2023/02/20 11:00:18;;;;;;;;;;;10.10;99.90;;;;;;5005095;28;19918;-62
2023/02/20 11:02:46;;;;;;;;;;;10.00;99.90;;;;;;5003222;28;19929;-62
2023/02/20 11:05:13;;;;;;;;;;;10.10;99.90;;;;;;5006647;28;19918;-63
2023/02/20 11:07:38;;;;;;;;;;;10.10;99.90;;;;;;5000886;28;19917;-62
2023/02/20 11:10:04;;;;;;;;;;;10.10;99.90;;;;;;5007851;28;19920;-63
2023/02/20 11:12:36;;;;;;;;;;;10.40;99.90;;;;;;5003638;28;20352;-61
2023/02/20 11:15:06;;;;;;;;;;;10.60;99.90;;;;;;4999359;28;20313;-63
2023/02/20 11:17:33;;;;;;;;;;;10.70;99.90;;;;;;5002974;28;19917;-62
2023/02/20 11:20:03;;;;;;;;;;;10.80;99.90;;;;;;5006698;28;20370;-63
2023/02/20 11:22:42;;;;;;;;;;;10.80;99.90;;;;;;5004546;28;19960;-61
2023/02/20 11:25:13;;;;;;;;;;;10.70;99.90;;;;;;4999780;28;20010;-63
2023/02/20 11:27:39;;;;;;;;;;;10.90;99.90;;;;;;5001706;28;20261;-63
2023/02/20 11:30:31;;;;;;;;;;;11.00;99.90;;;;;;4998786;28;20363;-62
2023/02/20 11:33:16;;;;;;;;;;;10.90;99.90;;;;;;4996158;28;19917;-62
2023/02/20 11:35:43;;;;;;;;;;;10.80;99.90;;;;;;5007753;28;19914;-63
2023/02/20 11:38:18;;;;;;;;;;;11.10;99.90;;;;;;5005164;28;19918;-62
2023/02/20 11:40:45;;;;;;;;;;;11.20;99.90;;;;;;5002743;28;19924;-62
2023/02/20 11:43:29;;;;;;;;;;;11.40;99.90;;;;;;5002870;28;20056;-62
2023/02/20 11:46:15;;;;;;;;;;;11.50;99.90;;;;;;4998111;28;19933;-63
2023/02/20 11:48:55;;;;;;;;;;;11.60;99.90;;;;;;5002340;28;19925;-63
2023/02/20 11:51:30;;;;;;;;;;;11.30;99.90;;;;;;5005637;28;20358;-63
2023/02/20 11:54:07;;;;;;;;;;;11.50;99.90;;;;;;4997498;28;20430;-62
2023/02/20 11:56:32;;;;;;;;;;;11.50;99.90;;;;;;5002879;28;20400;-63
2023/02/20 11:59:27;;;;;;;;;;;11.50;99.90;;;;;;4998161;28;20012;-63
2023/02/20 12:01:53;;;;;;;;;;;11.70;99.90;;;;;;4984267;28;19928;-63
2023/02/20 12:04:20;;;;;;;;;;;11.50;99.90;;;;;;5003169;28;19922;-64
2023/02/20 12:06:46;;;;;;;;;;;11.80;99.90;;;;;;5001605;28;20275;-62
2023/02/20 12:09:13;;;;;;;;;;;11.60;99.90;;;;;;5003501;28;19917;-64
2023/02/20 12:11:39;;;;;;;;;;;11.70;99.90;;;;;;5003242;28;19928;-63
2023/02/20 12:14:05;;;;;;;;;;;11.80;99.90;;;;;;5003615;28;19913;-62
2023/02/20 12:16:49;;;;;;;;;;;12.10;99.90;;;;;;4999648;28;19925;-64
2023/02/20 12:19:26;;;;;;;;;;;12.10;99.90;;;;;;5003895;28;19971;-64
2023/02/20 12:22:24;;;;;;;;;;;12.30;99.90;;;;;;4996856;28;20287;-64
2023/02/20 12:25:08;;;;;;;;;;;12.40;99.90;;;;;;4969488;28;20012;-63
2023/02/20 12:27:39;;;;;;;;;;;12.30;99.90;;;;;;5007545;28;20440;-63
2023/02/20 12:30:05;;;;;;;;;;;12.40;99.90;;;;;;5000346;28;19920;-62
2023/02/20 12:32:35;;;;;;;;;;;12.40;99.90;;;;;;5004393;28;19918;-61
2023/02/20 12:35:05;;;;;;;;;;;12.80;99.90;;;;;;5004650;28;19913;-63
2023/02/20 12:37:49;;;;;;;;;;;12.90;99.90;;;;;;5006764;28;19914;-62
2023/02/20 12:40:14;;;;;;;;;;;13.00;99.90;;;;;;5008206;28;19917;-63
2023/02/20 12:42:46;;;;;;;;;;;13.30;99.90;;;;;;5006700;28;19920;-62
2023/02/20 12:45:15;;;;;;;;;;;13.30;99.90;;;;;;5005756;28;20430;-63
2023/02/20 12:47:42;;;;;;;;;;;13.00;99.90;;;;;;5003067;28;20407;-61
2023/02/20 12:50:17;;;;;;;;;;;12.90;99.90;;;;;;5004827;28;20288;-63
2023/02/20 12:52:55;;;;;;;;;;;12.70;99.90;;;;;;5008012;28;20060;-61
2023/02/20 12:55:26;;;;;;;;;;;12.60;99.90;;;;;;5004284;28;20497;-62
2023/02/20 12:57:58;;;;;;;;;;;12.60;99.90;;;;;;5008708;28;19924;-63
2023/02/20 13:00:37;;;;;;;;;;;12.70;99.90;;;;;;5007635;28;19957;-63
2023/02/20 13:03:15;;;;;;;;;;;12.80;99.90;;;;;;5005070;28;19917;-63
2023/02/20 13:05:45;;;;;;;;;;;13.00;99.90;;;;;;5007334;28;19988;-63
2023/02/20 13:08:24;;;;;;;;;;;13.10;99.90;;;;;;5003846;28;19913;-63
2023/02/20 13:10:52;;;;;;;;;;;13.20;99.90;;;;;;4995509;28;19972;-63
2023/02/20 13:13:17;;;;;;;;;;;13.30;99.90;;;;;;4987540;28;19921;-63
2023/02/20 13:15:57;;;;;;;;;;;13.50;99.90;;;;;;4989594;28;20315;-63
2023/02/20 13:18:28;;;;;;;;;;;13.60;99.90;;;;;;4992442;28;19920;-62
2023/02/20 13:20:56;;;;;;;;;;;13.80;99.90;;;;;;4990640;28;20000;-61
2023/02/20 13:23:21;;;;;;;;;;;13.40;99.90;;;;;;4994153;28;20371;-62
2023/02/20 13:25:47;;;;;;;;;;;13.30;99.90;;;;;;4991134;28;20008;-63
2023/02/20 13:28:16;;;;;;;;;;;12.90;99.90;;;;;;4989979;28;19918;-63
2023/02/20 13:30:41;;;;;;;;;;;12.80;99.90;;;;;;4993298;28;19910;-62
2023/02/20 13:33:20;;;;;;;;;;;12.70;99.90;;;;;;4990070;28;19928;-60
2023/02/20 13:35:50;;;;;;;;;;;12.50;99.90;;;;;;4991744;28;19914;-62
2023/02/20 13:38:16;;;;;;;;;;;12.00;99.90;;;;;;4996984;28;19913;-62
2023/02/20 13:40:43;;;;;;;;;;;12.00;99.90;;;;;;4991033;28;20427;-62
2023/02/20 13:43:09;;;;;;;;;;;11.90;99.90;;;;;;4986559;28;19913;-63
2023/02/20 13:45:35;;;;;;;;;;;11.80;99.90;;;;;;4992192;28;19980;-63
2023/02/20 13:48:18;;;;;;;;;;;11.80;99.90;;;;;;4993179;28;19916;-63
2023/02/20 13:50:43;;;;;;;;;;;11.80;99.90;;;;;;4984586;28;19953;-63
2023/02/20 13:53:09;;;;;;;;;;;11.60;99.90;;;;;;4999301;28;20425;-62
2023/02/20 13:55:35;;;;;;;;;;;11.50;99.90;;;;;;4991882;28;19953;-62
2023/02/20 13:58:12;;;;;;;;;;;11.60;99.90;;;;;;4999471;28;19910;-61
2023/02/20 14:00:44;;;;;;;;;;;11.60;99.90;;;;;;4992688;28;19921;-63
2023/02/20 14:03:10;;;;;;;;;;;11.50;99.90;;;;;;4981528;28;19960;-61
2023/02/20 14:05:36;;;;;;;;;;;11.60;99.90;;;;;;4992225;28;20300;-62
2023/02/20 14:08:01;;;;;;;;;;;11.60;99.90;;;;;;4993186;28;19913;-62
2023/02/20 14:10:34;;;;;;;;;;;11.70;99.90;;;;;;4995326;28;20343;-62
2023/02/20 14:12:59;;;;;;;;;;;12.10;99.90;;;;;;4993239;28;20302;-62
2023/02/20 14:15:25;;;;;;;;;;;12.10;99.90;;;;;;4993988;28;19914;-62
2023/02/20 14:17:51;;;;;;;;;;;12.40;99.90;;;;;;4989074;28;20520;-60
2023/02/20 14:20:18;;;;;;;;;;;12.40;99.90;;;;;;4993917;28;19968;-63
2023/02/20 14:22:44;;;;;;;;;;;12.50;99.90;;;;;;4986451;28;19914;-62
2023/02/20 14:25:23;;;;;;;;;;;12.60;99.90;;;;;;4987229;28;19917;-60
2023/02/20 14:27:49;;;;;;;;;;;12.80;99.90;;;;;;4987592;28;20021;-63
2023/02/20 14:30:17;;;;;;;;;;;12.60;99.90;;;;;;4986531;28;19965;-62
2023/02/20 14:32:44;;;;;;;;;;;12.30;99.90;;;;;;4996022;28;19918;-63
2023/02/20 14:35:15;;;;;;;;;;;12.50;99.90;;;;;;4991456;28;19960;-64
2023/02/20 14:37:49;;;;;;;;;;;12.50;99.90;;;;;;4997984;28;19933;-63
2023/02/20 14:40:24;;;;;;;;;;;12.20;99.90;;;;;;4987658;28;19918;-63
2023/02/20 14:42:49;;;;;;;;;;;12.50;99.90;;;;;;4987186;28;20447;-63
2023/02/20 14:45:18;;;;;;;;;;;12.60;99.90;;;;;;4986575;28;20021;-63
2023/02/20 14:47:53;;;;;;;;;;;12.40;99.90;;;;;;4985544;28;19918;-61
2023/02/20 14:50:23;;;;;;;;;;;12.40;99.90;;;;;;4991695;28;19968;-63
2023/02/20 14:53:07;;;;;;;;;;;12.20;99.90;;;;;;4987648;28;20953;-63